createdAt,value
2019-03-24T00:02:24.112Z,17.42
2019-03-24T00:04:53.292Z,23.52
2019-03-24T00:07:22.504Z,21.62
2019-03-24T00:09:51.703Z,17.98
2019-03-24T00:12:20.910Z,19.87
2019-03-24T00:14:50.241Z,27.40
2019-03-24T00:17:19.516Z,21.73
2019-03-24T00:19:48.738Z,17.40
2019-03-24T00:22:17.997Z,11.75
2019-03-24T00:24:47.201Z,23.12
2019-03-24T00:27:16.750Z,28.30
2019-03-24T00:29:45.953Z,19.02
2019-03-24T00:32:15.160Z,24.80
2019-03-24T00:34:44.395Z,22.95
2019-03-24T00:37:13.601Z,32.03
2019-03-24T00:39:42.834Z,28.23
2019-03-24T00:42:12.104Z,25.30
2019-03-24T00:44:41.371Z,28.07
2019-03-24T00:47:10.600Z,20.20
2019-03-24T00:49:40.129Z,21.17
2019-03-24T00:52:09.598Z,34.25
2019-03-24T00:54:38.818Z,22.05
2019-03-24T00:57:08.029Z,25.75
2019-03-24T00:59:37.565Z,20.62
2019-03-24T01:02:06.824Z,18.50
2019-03-24T01:04:36.401Z,23.20
2019-03-24T01:07:05.696Z,37.42
2019-03-24T01:09:34.888Z,28.73
2019-03-24T01:12:04.563Z,25.90
2019-03-24T01:14:33.777Z,27.27
2019-03-24T01:17:02.976Z,24.15
2019-03-24T01:19:32.219Z,24.02
2019-03-24T01:22:01.540Z,28.83
2019-03-24T01:24:30.741Z,20.02
2019-03-24T01:26:59.941Z,21.23
2019-03-24T01:29:29.173Z,25.97
2019-03-24T01:31:58.734Z,28.95
2019-03-24T01:34:27.937Z,27.35
2019-03-24T01:36:57.158Z,20.62
2019-03-24T01:39:26.441Z,18.48
2019-03-24T01:41:55.665Z,20.40
2019-03-24T01:44:24.886Z,21.65
2019-03-24T01:46:54.077Z,30.52
2019-03-24T01:49:23.264Z,34.65
2019-03-24T01:51:52.488Z,34.33
2019-03-24T01:54:21.924Z,24.63
2019-03-24T01:56:51.469Z,28.55
2019-03-24T01:59:20.693Z,23.52
2019-03-24T02:01:49.896Z,24.92
2019-03-24T02:04:19.091Z,26.10
2019-03-24T02:06:48.321Z,34.80
2019-03-24T02:09:17.610Z,25.55
2019-03-24T02:11:46.827Z,26.42
2019-03-24T02:14:16.171Z,23.75
2019-03-24T02:16:45.390Z,23.52
2019-03-24T02:19:14.593Z,23.38
2019-03-24T02:21:43.790Z,27.93
2019-03-24T02:24:13.009Z,35.83
2019-03-24T02:26:42.571Z,30.08
2019-03-24T02:29:11.843Z,22.22
2019-03-24T02:31:41.056Z,23.35
2019-03-24T02:34:10.259Z,27.85
2019-03-24T02:36:39.464Z,20.70
2019-03-24T02:39:09.373Z,46.63
2019-03-24T02:41:38.568Z,36.90
2019-03-24T02:44:07.770Z,26.00
2019-03-24T02:46:37.003Z,37.03
2019-03-24T02:49:06.225Z,24.80
2019-03-24T02:51:35.465Z,35.70
2019-03-24T02:54:05.327Z,34.03
2019-03-24T02:56:34.534Z,40.03
2019-03-24T02:59:03.854Z,46.85
2019-03-24T03:01:33.053Z,29.85
2019-03-24T03:04:02.258Z,30.90
2019-03-24T03:06:31.484Z,45.78
2019-03-24T03:09:00.718Z,74.07
2019-03-24T03:11:29.910Z,42.90
2019-03-24T03:13:59.150Z,32.78
2019-03-24T03:16:38.213Z,36.17
2019-03-24T03:18:59.295Z,31.60
2019-03-24T03:21:28.504Z,28.10
2019-03-24T03:23:57.704Z,29.95
2019-03-24T03:26:26.921Z,38.23
2019-03-24T03:28:56.121Z,28.60
2019-03-24T03:31:25.319Z,25.55
2019-03-24T03:33:54.538Z,36.28
2019-03-24T03:36:23.757Z,22.65
2019-03-24T03:38:52.982Z,35.45
2019-03-24T03:41:22.197Z,29.23
2019-03-24T03:43:51.413Z,26.20
2019-03-24T03:46:20.605Z,28.62
2019-03-24T03:48:49.840Z,31.42
2019-03-24T03:51:19.049Z,29.87
2019-03-24T03:53:48.245Z,28.02
2019-03-24T03:56:17.479Z,37.50
2019-03-24T03:58:46.677Z,45.73
2019-03-24T04:01:15.884Z,23.07
2019-03-24T04:03:45.114Z,24.75
2019-03-24T04:06:14.315Z,30.85
2019-03-24T04:08:43.525Z,29.63
2019-03-24T04:11:12.760Z,28.50
2019-03-24T04:13:41.980Z,30.15
2019-03-24T04:16:11.197Z,22.58
2019-03-24T04:18:40.422Z,36.40
2019-03-24T04:21:09.627Z,27.02
2019-03-24T04:23:39.169Z,22.77
2019-03-24T04:26:08.376Z,27.90
2019-03-24T04:28:37.601Z,26.77
2019-03-24T04:31:06.799Z,36.17
2019-03-24T04:33:35.996Z,24.75
2019-03-24T04:36:05.281Z,25.25
2019-03-24T04:38:34.509Z,28.65
2019-03-24T04:41:03.729Z,36.65
2019-03-24T04:43:32.963Z,31.20
2019-03-24T04:46:02.172Z,23.25
2019-03-24T04:48:31.376Z,34.43
2019-03-24T04:51:00.607Z,29.27
2019-03-24T04:53:29.808Z,35.08
2019-03-24T04:55:59.015Z,35.38
2019-03-24T04:58:28.257Z,39.95
2019-03-24T05:00:57.467Z,49.98
2019-03-24T05:03:26.664Z,49.50
2019-03-24T05:05:56.149Z,47.78
2019-03-24T05:08:26.320Z,52.78
2019-03-24T05:10:55.517Z,60.60
2019-03-24T05:13:24.742Z,64.90
2019-03-24T05:15:53.972Z,69.27
2019-03-24T05:18:23.981Z,55.03
2019-03-24T05:20:53.204Z,70.50
2019-03-24T05:23:22.409Z,72.42
2019-03-24T05:25:51.656Z,58.40
2019-03-24T05:28:20.882Z,58.92
2019-03-24T05:30:50.149Z,52.05
2019-03-24T05:33:19.378Z,52.53
2019-03-24T05:35:48.579Z,65.80
2019-03-24T05:38:17.811Z,53.28
2019-03-24T05:40:47.015Z,57.95
2019-03-24T05:43:16.247Z,52.25
2019-03-24T05:45:46.708Z,61.20
2019-03-24T05:48:15.935Z,50.95
2019-03-24T05:50:45.149Z,59.70
2019-03-24T05:53:14.395Z,44.27
2019-03-24T05:55:43.944Z,48.05
2019-03-24T05:58:13.235Z,46.30
2019-03-24T06:00:42.483Z,45.10
2019-03-24T06:03:11.706Z,42.08
2019-03-24T06:05:41.228Z,45.35
2019-03-24T06:08:10.466Z,34.83
2019-03-24T06:10:39.665Z,35.90
2019-03-24T06:13:08.886Z,44.23
2019-03-24T06:15:38.355Z,38.95
2019-03-24T06:18:07.555Z,48.90
2019-03-24T06:20:36.801Z,49.25
2019-03-24T06:23:06.004Z,54.33
2019-03-24T06:25:35.223Z,35.33
2019-03-24T06:28:04.532Z,50.60
2019-03-24T06:30:33.738Z,49.73
2019-03-24T06:33:03.030Z,45.75
2019-03-24T06:35:33.293Z,41.33
2019-03-24T06:38:02.961Z,56.30
2019-03-24T06:40:32.206Z,50.17
2019-03-24T06:43:01.440Z,47.98
2019-03-24T06:45:31.400Z,51.10
2019-03-24T06:48:00.594Z,44.20
2019-03-24T06:50:29.821Z,48.23
2019-03-24T06:52:59.030Z,50.78
2019-03-24T06:55:28.319Z,45.12
2019-03-24T06:57:57.832Z,50.10
2019-03-24T07:00:27.062Z,63.33
2019-03-24T07:02:56.533Z,47.33
2019-03-24T07:05:25.778Z,35.88
2019-03-24T07:07:54.983Z,50.85
2019-03-24T07:10:24.252Z,50.12
2019-03-24T07:12:53.492Z,43.08
2019-03-24T07:15:23.077Z,41.37
2019-03-24T07:17:52.990Z,41.15
2019-03-24T07:20:22.311Z,47.95
2019-03-24T07:22:51.777Z,46.48
2019-03-24T07:25:20.974Z,45.75
2019-03-24T07:27:50.208Z,48.52
2019-03-24T07:30:19.566Z,40.90
2019-03-24T07:32:49.071Z,43.50
2019-03-24T07:35:18.476Z,31.25
2019-03-24T07:37:47.770Z,42.33
2019-03-24T07:40:17.156Z,32.83
2019-03-24T07:42:46.367Z,39.58
2019-03-24T07:45:15.849Z,41.95
2019-03-24T07:47:45.043Z,51.30
2019-03-24T07:50:14.470Z,45.08
2019-03-24T07:52:43.692Z,40.55
2019-03-24T07:55:13.043Z,46.58
2019-03-24T07:57:42.277Z,40.92
2019-03-24T08:00:13.849Z,42.30
2019-03-24T08:02:51.740Z,39.92
2019-03-24T08:05:21.069Z,48.73
2019-03-24T08:07:50.270Z,45.17
2019-03-24T08:10:21.717Z,41.90
2019-03-24T08:12:50.917Z,34.33
2019-03-24T08:15:20.160Z,36.30
2019-03-24T08:17:49.389Z,39.18
2019-03-24T08:20:18.617Z,38.45
2019-03-24T08:22:47.825Z,43.90
2019-03-24T08:25:19.069Z,38.92
2019-03-24T08:27:47.989Z,39.88
2019-03-24T08:30:26.063Z,41.98
2019-03-24T08:32:55.316Z,46.37
2019-03-24T08:35:24.579Z,46.28
2019-03-24T08:37:53.798Z,36.33
2019-03-24T08:40:23.028Z,44.20
2019-03-24T08:42:52.304Z,50.17
2019-03-24T08:45:28.767Z,29.40
2019-03-24T08:47:58.539Z,42.88
2019-03-24T08:50:27.928Z,41.83
2019-03-24T08:52:57.319Z,41.48
2019-03-24T08:55:26.521Z,34.73
2019-03-24T08:57:55.724Z,35.08
2019-03-24T09:00:30.722Z,40.75
2019-03-24T09:02:55.908Z,43.02
2019-03-24T09:05:25.120Z,44.30
2019-03-24T09:07:54.353Z,31.52
2019-03-24T09:10:23.885Z,39.35
2019-03-24T09:12:53.387Z,41.02
2019-03-24T09:15:22.666Z,41.85
2019-03-24T09:17:51.892Z,39.27
2019-03-24T09:20:21.095Z,42.50
2019-03-24T09:22:50.317Z,42.75
2019-03-24T09:25:19.570Z,43.15
2019-03-24T09:27:48.743Z,34.05
2019-03-24T09:30:46.533Z,40.85
2019-03-24T09:33:15.760Z,44.95
2019-03-24T09:35:44.964Z,37.83
2019-03-24T09:38:14.218Z,35.00
2019-03-24T09:40:43.413Z,36.33
2019-03-24T09:43:12.616Z,28.45
2019-03-24T09:45:41.868Z,30.20
2019-03-24T09:48:11.068Z,31.20
2019-03-24T09:50:40.277Z,38.05
2019-03-24T09:53:09.668Z,29.30
2019-03-24T09:55:38.887Z,24.87
2019-03-24T09:58:08.226Z,30.30
2019-03-24T10:00:37.413Z,19.80
2019-03-24T10:03:06.704Z,23.22
2019-03-24T10:05:35.939Z,20.77
2019-03-24T10:08:05.329Z,19.92
2019-03-24T10:10:34.545Z,24.65
2019-03-24T10:13:03.777Z,30.35
2019-03-24T10:15:33.024Z,25.00
2019-03-24T10:18:02.269Z,23.50
2019-03-24T10:20:31.498Z,22.98
2019-03-24T10:23:00.732Z,19.73
2019-03-24T10:25:30.460Z,19.82
2019-03-24T10:27:59.673Z,12.33
2019-03-24T10:30:28.899Z,12.70
2019-03-24T10:32:58.214Z,11.83
2019-03-24T10:35:27.417Z,16.48
2019-03-24T10:37:56.663Z,14.98
2019-03-24T10:40:28.913Z,16.12
2019-03-24T10:42:56.790Z,14.10
2019-03-24T10:45:26.285Z,17.87
2019-03-24T10:47:55.609Z,16.77
2019-03-24T10:50:24.811Z,16.23
2019-03-24T10:52:54.018Z,14.73
2019-03-24T10:55:23.277Z,20.52
2019-03-24T10:57:52.489Z,20.35
2019-03-24T11:00:37.842Z,14.83
2019-03-24T11:03:07.147Z,21.12
2019-03-24T11:05:36.443Z,18.05
2019-03-24T11:08:05.784Z,11.50
2019-03-24T11:10:34.995Z,16.02
2019-03-24T11:13:04.296Z,13.58
2019-03-24T11:15:33.528Z,15.03
2019-03-24T11:18:02.750Z,10.85
2019-03-24T11:20:31.971Z,14.85
2019-03-24T11:23:01.207Z,13.50
2019-03-24T11:25:30.410Z,11.30
2019-03-24T11:28:00.017Z,13.15
2019-03-24T11:30:29.234Z,11.40
2019-03-24T11:32:58.431Z,11.10
2019-03-24T11:35:27.661Z,14.58
2019-03-24T11:37:56.868Z,10.43
2019-03-24T11:40:26.123Z,15.75
2019-03-24T11:42:55.359Z,9.78
2019-03-24T11:45:24.552Z,9.93
2019-03-24T11:47:53.786Z,11.03
2019-03-24T11:50:23.074Z,9.95
2019-03-24T11:52:52.303Z,8.95
2019-03-24T11:55:21.508Z,11.25
2019-03-24T11:57:51.606Z,12.35
2019-03-24T12:00:28.353Z,11.28
2019-03-24T12:02:57.567Z,12.47
2019-03-24T12:05:26.780Z,10.25
2019-03-24T12:07:56.007Z,14.87
2019-03-24T12:10:25.292Z,13.18
2019-03-24T12:12:54.532Z,11.05
2019-03-24T12:15:24.137Z,11.05
2019-03-24T12:17:53.390Z,11.45
2019-03-24T12:20:22.667Z,14.25
2019-03-24T12:22:51.870Z,14.90
2019-03-24T12:25:21.133Z,13.83
2019-03-24T12:27:50.378Z,14.43
2019-03-24T12:30:21.728Z,11.95
2019-03-24T12:32:50.934Z,13.10
2019-03-24T12:35:20.155Z,14.20
2019-03-24T12:37:49.358Z,14.73
2019-03-24T12:40:18.689Z,14.43
2019-03-24T12:42:48.009Z,10.78
2019-03-24T12:45:17.318Z,16.93
2019-03-24T12:47:49.195Z,10.05
2019-03-24T12:50:18.392Z,8.88
2019-03-24T12:52:47.615Z,13.53
2019-03-24T12:55:16.858Z,10.38
2019-03-24T12:57:48.723Z,14.78
2019-03-24T13:00:34.905Z,10.00
2019-03-24T13:03:04.349Z,7.65
2019-03-24T13:05:33.630Z,10.23
2019-03-24T13:08:13.099Z,11.78
2019-03-24T13:10:42.858Z,11.12
2019-03-24T13:13:12.141Z,11.73
2019-03-24T13:15:41.376Z,9.28
2019-03-24T13:18:10.688Z,14.10
2019-03-24T13:20:39.923Z,13.13
2019-03-24T13:23:09.139Z,18.17
2019-03-24T13:25:38.390Z,14.65
2019-03-24T13:28:07.596Z,15.68
2019-03-24T13:30:36.792Z,11.90
2019-03-24T13:33:06.434Z,12.63
2019-03-24T13:35:35.640Z,16.00
2019-03-24T13:38:06.233Z,13.00
2019-03-24T13:40:35.466Z,19.35
2019-03-24T13:43:04.774Z,22.73
2019-03-24T13:45:33.979Z,17.23
2019-03-24T13:48:03.243Z,19.25
2019-03-24T13:50:32.444Z,18.20
2019-03-24T13:53:01.657Z,16.27
2019-03-24T13:55:30.872Z,15.23
2019-03-24T13:58:00.140Z,17.23
2019-03-24T14:00:29.423Z,17.92
2019-03-24T14:02:58.713Z,20.08
2019-03-24T14:05:27.956Z,19.17
2019-03-24T14:07:57.165Z,18.45
2019-03-24T14:10:26.401Z,19.32
2019-03-24T14:12:55.636Z,13.83
2019-03-24T14:15:25.158Z,21.48
2019-03-24T14:17:54.352Z,18.27
2019-03-24T14:20:23.587Z,15.63
2019-03-24T14:22:55.229Z,13.20
2019-03-24T14:25:23.769Z,15.93
2019-03-24T14:27:52.991Z,13.55
2019-03-24T14:30:40.194Z,12.53
2019-03-24T14:33:09.467Z,15.05
2019-03-24T14:35:39.543Z,12.23
2019-03-24T14:38:09.082Z,10.68
2019-03-24T14:40:38.378Z,10.90
2019-03-24T14:43:07.684Z,7.75
2019-03-24T14:45:36.910Z,11.33
2019-03-24T14:48:06.187Z,9.05
2019-03-24T14:50:35.444Z,11.53
2019-03-24T14:53:04.786Z,5.75
2019-03-24T14:55:33.841Z,9.85
2019-03-24T14:58:03.725Z,9.25
2019-03-24T15:00:37.949Z,8.80
2019-03-24T15:03:07.360Z,11.97
2019-03-24T15:05:36.621Z,9.80
2019-03-24T15:08:06.884Z,9.15
2019-03-24T15:10:36.191Z,7.87
2019-03-24T15:13:06.103Z,12.75
2019-03-24T15:15:35.323Z,8.75
2019-03-24T15:18:05.792Z,7.42
2019-03-24T15:20:35.097Z,10.25
2019-03-24T15:23:04.690Z,8.78
2019-03-24T15:25:33.923Z,10.60
2019-03-24T15:28:03.455Z,6.65
2019-03-24T15:30:33.603Z,9.58
2019-03-24T15:33:02.872Z,6.60
2019-03-24T15:35:32.075Z,7.33
2019-03-24T15:38:08.130Z,8.48
2019-03-24T15:40:32.234Z,6.60
2019-03-24T15:43:01.479Z,6.20
2019-03-24T15:45:30.682Z,7.85
2019-03-24T15:47:59.932Z,7.25
2019-03-24T15:50:29.438Z,7.12
2019-03-24T15:52:58.659Z,8.60
2019-03-24T15:55:27.862Z,6.40
2019-03-24T15:57:57.063Z,5.83
2019-03-24T16:00:43.323Z,7.53
2019-03-24T16:03:12.658Z,7.12
2019-03-24T16:05:41.958Z,5.58
2019-03-24T16:08:11.450Z,7.37
2019-03-24T16:10:40.847Z,3.85
2019-03-24T16:13:10.050Z,3.83
2019-03-24T16:15:39.252Z,5.45
2019-03-24T16:18:08.466Z,5.17
2019-03-24T16:20:37.763Z,5.42
2019-03-24T16:23:07.289Z,4.37
2019-03-24T16:25:36.762Z,4.72
2019-03-24T16:28:07.511Z,5.15
2019-03-24T16:30:36.737Z,6.85
2019-03-24T16:33:06.197Z,7.60
2019-03-24T16:35:35.483Z,3.40
2019-03-24T16:38:05.662Z,7.45
2019-03-24T16:40:34.885Z,8.53
2019-03-24T16:43:04.106Z,5.42
2019-03-24T16:45:33.715Z,10.43
2019-03-24T16:48:06.707Z,6.55
2019-03-24T16:50:40.183Z,6.45
2019-03-24T16:53:15.054Z,6.85
2019-03-24T16:55:44.919Z,4.50
2019-03-24T16:58:14.624Z,3.00
2019-03-24T17:00:43.919Z,2.47
2019-03-24T17:03:13.142Z,5.47
2019-03-24T17:05:44.101Z,2.58
2019-03-24T17:08:13.324Z,6.42
2019-03-24T17:10:42.516Z,3.15
2019-03-24T17:13:11.751Z,4.67
2019-03-24T17:15:40.935Z,6.20
2019-03-24T17:18:11.138Z,9.30
2019-03-24T17:20:40.362Z,5.50
2019-03-24T17:23:09.605Z,6.30
2019-03-24T17:25:38.798Z,5.83
2019-03-24T17:28:08.288Z,5.62
2019-03-24T17:30:37.508Z,9.38
2019-03-24T17:33:06.784Z,3.62
2019-03-24T17:35:37.093Z,6.80
2019-03-24T17:38:07.105Z,5.70
2019-03-24T17:40:38.996Z,4.08
2019-03-24T17:43:12.083Z,7.78
2019-03-24T17:45:46.011Z,4.75
2019-03-24T17:48:17.665Z,4.62
2019-03-24T17:50:46.886Z,9.08
2019-03-24T17:53:16.364Z,5.90
2019-03-24T17:55:45.587Z,4.75
2019-03-24T17:58:15.404Z,7.62
2019-03-24T18:00:50.907Z,4.75
2019-03-24T18:03:20.158Z,8.25
2019-03-24T18:05:49.443Z,6.87
2019-03-24T18:08:18.642Z,4.53
2019-03-24T18:10:47.862Z,5.97
2019-03-24T18:13:19.945Z,7.72
2019-03-24T18:15:52.696Z,7.53
2019-03-24T18:18:26.150Z,11.80
2019-03-24T18:20:58.749Z,6.65
2019-03-24T18:23:37.309Z,9.83
2019-03-24T18:26:11.653Z,15.30
2019-03-24T18:28:41.355Z,6.58
2019-03-24T18:31:12.118Z,9.30
2019-03-24T18:33:42.333Z,10.70
2019-03-24T18:36:11.578Z,8.60
2019-03-24T18:38:40.790Z,12.45
2019-03-24T18:41:09.985Z,13.15
2019-03-24T18:43:39.222Z,10.98
2019-03-24T18:46:08.407Z,12.60
2019-03-24T18:48:37.636Z,13.68
2019-03-24T18:51:07.166Z,6.95
2019-03-24T18:53:36.365Z,12.43
2019-03-24T18:56:05.730Z,10.15
2019-03-24T18:58:34.882Z,12.20
2019-03-24T19:01:04.086Z,13.03
2019-03-24T19:03:33.327Z,10.00
2019-03-24T19:06:02.516Z,9.55
2019-03-24T19:08:31.737Z,11.03
2019-03-24T19:11:01.020Z,16.20
2019-03-24T19:13:30.206Z,13.08
2019-03-24T19:15:59.438Z,41.37
2019-03-24T19:18:28.643Z,27.77
2019-03-24T19:20:57.829Z,18.85
2019-03-24T19:23:27.155Z,16.52
2019-03-24T19:25:56.376Z,14.47
2019-03-24T19:28:25.575Z,12.88
2019-03-24T19:30:55.299Z,11.05
2019-03-24T19:33:24.493Z,10.25
2019-03-24T19:35:53.684Z,14.83
2019-03-24T19:38:23.603Z,18.27
2019-03-24T19:40:52.800Z,18.27
2019-03-24T19:43:22.018Z,13.25
2019-03-24T19:45:51.635Z,10.88
2019-03-24T19:48:20.833Z,11.60
2019-03-24T19:50:50.056Z,14.68
2019-03-24T19:53:19.270Z,16.60
2019-03-24T19:55:48.471Z,11.88
2019-03-24T19:58:17.682Z,18.25
2019-03-24T20:00:46.958Z,15.25
2019-03-24T20:03:16.174Z,16.73
2019-03-24T20:05:45.372Z,15.68
2019-03-24T20:08:14.611Z,17.20
2019-03-24T20:10:43.813Z,14.78
2019-03-24T20:13:13.098Z,20.08
2019-03-24T20:15:42.405Z,17.05
2019-03-24T20:18:11.617Z,13.48
2019-03-24T20:20:41.149Z,10.90
2019-03-24T20:23:10.364Z,14.78
2019-03-24T20:25:39.579Z,13.93
2019-03-24T20:28:09.453Z,14.90
2019-03-24T20:30:38.653Z,13.25
2019-03-24T20:33:07.872Z,21.27
2019-03-24T20:35:37.108Z,16.07
2019-03-24T20:38:06.344Z,14.03
2019-03-24T20:40:35.545Z,15.83
2019-03-24T20:43:04.841Z,18.12
2019-03-24T20:45:35.242Z,15.32
2019-03-24T20:48:04.504Z,22.20
2019-03-24T20:50:33.794Z,30.10
2019-03-24T20:53:05.693Z,27.07
2019-03-24T20:55:34.518Z,23.95
2019-03-24T20:58:03.953Z,18.35
2019-03-24T21:00:35.168Z,18.40
2019-03-24T21:03:06.470Z,18.82
2019-03-24T21:05:35.769Z,21.62
2019-03-24T21:08:05.937Z,19.25
2019-03-24T21:10:35.584Z,23.12
2019-03-24T21:13:05.012Z,17.05
2019-03-24T21:15:34.210Z,21.50
2019-03-24T21:18:03.490Z,17.48
2019-03-24T21:20:32.725Z,21.52
2019-03-24T21:23:01.958Z,19.27
2019-03-24T21:25:31.170Z,16.07
2019-03-24T21:28:00.393Z,23.45
2019-03-24T21:30:37.249Z,19.45
2019-03-24T21:33:06.749Z,21.07
2019-03-24T21:35:36.126Z,28.12
2019-03-24T21:38:05.574Z,20.43
2019-03-24T21:40:35.031Z,20.20
2019-03-24T21:43:06.494Z,14.73
2019-03-24T21:45:35.608Z,11.18
2019-03-24T21:48:04.943Z,12.65
2019-03-24T21:50:34.165Z,13.32
2019-03-24T21:53:03.440Z,16.07
2019-03-24T21:55:32.667Z,17.62
2019-03-24T21:58:01.888Z,20.52
2019-03-24T22:00:35.477Z,16.57
2019-03-24T22:03:05.018Z,11.63
2019-03-24T22:05:34.350Z,14.78
2019-03-24T22:08:03.551Z,14.43
2019-03-24T22:10:32.787Z,14.40
2019-03-24T22:13:01.985Z,20.25
2019-03-24T22:15:31.186Z,18.37
2019-03-24T22:18:00.493Z,10.43
2019-03-24T22:20:30.816Z,20.05
2019-03-24T22:23:00.355Z,12.20
2019-03-24T22:25:29.593Z,14.38
2019-03-24T22:27:59.232Z,15.78
2019-03-24T22:30:29.982Z,15.10
2019-03-24T22:32:59.709Z,15.08
2019-03-24T22:35:28.958Z,6.47
2019-03-24T22:37:58.533Z,11.90
2019-03-24T22:40:27.754Z,12.88
2019-03-24T22:42:57.050Z,19.62
2019-03-24T22:45:26.644Z,12.93
2019-03-24T22:47:56.141Z,13.88
2019-03-24T22:50:28.679Z,17.27
2019-03-24T22:52:58.574Z,11.63
2019-03-24T22:55:28.030Z,17.92
2019-03-24T22:57:57.262Z,20.62
2019-03-24T23:00:41.864Z,17.55
2019-03-24T23:03:11.987Z,11.65
2019-03-24T23:05:41.549Z,18.27
2019-03-24T23:08:11.149Z,21.93
2019-03-24T23:10:42.905Z,19.73
2019-03-24T23:13:13.518Z,13.70
2019-03-24T23:15:42.739Z,17.32
2019-03-24T23:18:12.804Z,14.00
2019-03-24T23:20:42.896Z,13.08
2019-03-24T23:23:12.460Z,24.07
2019-03-24T23:25:42.403Z,13.18
2019-03-24T23:28:13.024Z,12.98
2019-03-24T23:30:42.583Z,17.15
2019-03-24T23:33:11.872Z,12.47
2019-03-24T23:35:41.647Z,19.00
2019-03-24T23:38:11.424Z,11.75
2019-03-24T23:40:41.038Z,17.25
2019-03-24T23:43:10.978Z,17.70
2019-03-24T23:45:40.254Z,16.45
2019-03-24T23:48:10.097Z,13.00
2019-03-24T23:50:39.332Z,10.08
2019-03-24T23:53:08.552Z,17.80
2019-03-24T23:55:37.759Z,9.48
2019-03-24T23:58:09.401Z,19.65
